createdAt,value
2023-05-06T00:00:10.444Z,100373.78
2023-05-06T00:02:38.835Z,100375.94
2023-05-06T00:05:08.230Z,100378.16
2023-05-06T00:07:37.093Z,100377.38
2023-05-06T00:10:07.753Z,100372.31
2023-05-06T00:12:36.179Z,100373.66
2023-05-06T00:15:04.929Z,100368.78
2023-05-06T00:17:33.261Z,100367.06
2023-05-06T00:20:01.864Z,100369.03
2023-05-06T00:22:30.286Z,100366.81
2023-05-06T00:24:58.796Z,100363.16
2023-05-06T00:27:28.792Z,100360.88
2023-05-06T00:29:58.029Z,100360.22
2023-05-06T00:32:26.523Z,100363.97
2023-05-06T00:34:54.897Z,100366.13
2023-05-06T00:37:23.183Z,100354.22
2023-05-06T00:39:51.656Z,100356.53
2023-05-06T00:42:22.690Z,100349.75
2023-05-06T00:44:52.631Z,100345.22
2023-05-06T00:47:23.423Z,100347.13
2023-05-06T00:49:52.212Z,100340.25
2023-05-06T00:52:21.301Z,100351.31
2023-05-06T00:54:50.278Z,100337.75
2023-05-06T00:57:18.930Z,100342.19
2023-05-06T00:59:47.274Z,100346.75
2023-05-06T01:02:17.418Z,100348.47
2023-05-06T01:04:45.952Z,100351.38
2023-05-06T01:07:25.155Z,100351.84
2023-05-06T01:10:00.377Z,100345.63
2023-05-06T01:12:33.697Z,100342.81
2023-05-06T01:15:08.833Z,100338.03
2023-05-06T01:17:44.947Z,100338.19
2023-05-06T01:20:15.419Z,100324.75
2023-05-06T01:22:43.958Z,100331.25
2023-05-06T01:25:21.425Z,100326.22
2023-05-06T01:27:49.846Z,100312.91
2023-05-06T01:30:19.544Z,100319.75
2023-05-06T01:32:59.731Z,100317.47
2023-05-06T01:35:36.639Z,100304.41
2023-05-06T01:38:13.947Z,100307.13
2023-05-06T01:40:45.725Z,100300.13
2023-05-06T01:43:14.542Z,100298.81
2023-05-06T01:45:43.898Z,100287.38
2023-05-06T01:48:13.008Z,100300.03
2023-05-06T01:50:42.057Z,100292.16
2023-05-06T01:53:10.368Z,100301.97
2023-05-06T01:55:38.970Z,100299.75
2023-05-06T01:58:08.832Z,100293.75
2023-05-06T02:00:40.313Z,100303.94
2023-05-06T02:03:08.979Z,100294.22
2023-05-06T02:05:37.446Z,100305.53
2023-05-06T02:08:06.004Z,100308.78
2023-05-06T02:10:34.334Z,100302.47
2023-05-06T02:13:02.820Z,100305.63
2023-05-06T02:15:32.580Z,100301.53
2023-05-06T02:18:01.707Z,100305.34
2023-05-06T02:20:30.168Z,100305.50
2023-05-06T02:22:58.462Z,100302.84
2023-05-06T02:25:26.803Z,100303.94
2023-05-06T02:27:55.136Z,100316.75
2023-05-06T02:30:23.691Z,100309.31
2023-05-06T02:32:53.530Z,100306.63
2023-05-06T02:35:22.022Z,100301.78
2023-05-06T02:37:50.380Z,100294.41
2023-05-06T02:40:18.993Z,100299.78
2023-05-06T02:42:47.390Z,100309.09
2023-05-06T02:45:15.783Z,100299.66
2023-05-06T02:47:44.181Z,100304.53
2023-05-06T02:50:14.029Z,100305.03
2023-05-06T02:52:42.973Z,100309.59
2023-05-06T02:55:11.965Z,100303.56
2023-05-06T02:57:40.408Z,100296.31
2023-05-06T03:00:11.136Z,100303.25
2023-05-06T03:02:39.610Z,100307.19
2023-05-06T03:05:09.305Z,100298.50
2023-05-06T03:07:40.086Z,100314.16
2023-05-06T03:10:09.268Z,100300.38
2023-05-06T03:12:37.598Z,100310.81
2023-05-06T03:15:07.274Z,100306.88
2023-05-06T03:17:36.164Z,100307.00
2023-05-06T03:20:05.175Z,100318.63
2023-05-06T03:22:33.490Z,100318.47
2023-05-06T03:25:03.399Z,100319.03
2023-05-06T03:27:31.790Z,100312.19
2023-05-06T03:30:00.204Z,100319.44
2023-05-06T03:32:28.638Z,100327.38
2023-05-06T03:34:57.077Z,100322.84
2023-05-06T03:37:25.391Z,100336.81
2023-05-06T03:39:53.726Z,100341.53
2023-05-06T03:42:23.622Z,100337.78
2023-05-06T03:44:52.134Z,100343.59
2023-05-06T03:47:20.657Z,100343.13
2023-05-06T03:49:49.196Z,100358.09
2023-05-06T03:52:17.577Z,100351.38
2023-05-06T03:54:46.069Z,100345.63
2023-05-06T03:57:14.495Z,100343.94
2023-05-06T03:59:44.281Z,100352.38
2023-05-06T04:02:12.775Z,100369.38
2023-05-06T04:04:41.261Z,100365.38
2023-05-06T04:07:09.649Z,100361.50
2023-05-06T04:09:37.967Z,100365.41
2023-05-06T04:12:07.076Z,100372.44
2023-05-06T04:14:35.576Z,100364.53
2023-05-06T04:17:05.627Z,100366.16
2023-05-06T04:19:34.065Z,100368.84
2023-05-06T04:22:02.608Z,100380.84
2023-05-06T04:24:31.471Z,100367.41
2023-05-06T04:26:59.801Z,100359.59
2023-05-06T04:29:28.322Z,100363.22
2023-05-06T04:31:56.687Z,100380.56
2023-05-06T04:34:27.904Z,100375.25
2023-05-06T04:36:56.632Z,100373.78
2023-05-06T04:39:25.210Z,100376.34
2023-05-06T04:41:53.674Z,100394.81
2023-05-06T04:44:22.549Z,100401.03
2023-05-06T04:46:51.277Z,100401.34
2023-05-06T04:49:19.547Z,100399.59
2023-05-06T04:51:49.377Z,100403.19
2023-05-06T04:54:17.677Z,100393.38
2023-05-06T04:56:45.972Z,100406.00
2023-05-06T04:59:14.416Z,100393.19
2023-05-06T05:01:42.747Z,100397.56
2023-05-06T05:04:11.168Z,100405.63
2023-05-06T05:06:39.528Z,100406.91
2023-05-06T05:09:10.707Z,100413.25
2023-05-06T05:11:39.440Z,100406.59
2023-05-06T05:14:07.756Z,100406.63
2023-05-06T05:16:36.261Z,100414.81
2023-05-06T05:19:05.757Z,100411.47
2023-05-06T05:21:35.872Z,100419.69
2023-05-06T05:24:04.226Z,100410.81
2023-05-06T05:26:33.926Z,100412.91
2023-05-06T05:29:02.211Z,100405.41
2023-05-06T05:31:31.567Z,100407.44
2023-05-06T05:34:00.264Z,100414.69
2023-05-06T05:36:29.082Z,100416.53
2023-05-06T05:38:57.429Z,100422.13
2023-05-06T05:41:26.985Z,100414.28
2023-05-06T05:43:56.741Z,100415.59
2023-05-06T05:46:25.295Z,100431.28
2023-05-06T05:48:53.662Z,100440.13
2023-05-06T05:51:21.957Z,100426.22
2023-05-06T05:53:52.048Z,100430.34
2023-05-06T05:56:20.761Z,100429.00
2023-05-06T05:58:49.252Z,100430.88
2023-05-06T06:01:19.574Z,100441.28
2023-05-06T06:03:48.904Z,100446.50
2023-05-06T06:06:17.738Z,100440.97
2023-05-06T06:08:46.366Z,100440.63
2023-05-06T06:11:14.718Z,100452.28
2023-05-06T06:13:42.993Z,100439.88
2023-05-06T06:16:12.155Z,100437.91
2023-05-06T06:18:41.902Z,100444.06
2023-05-06T06:21:10.339Z,100449.22
2023-05-06T06:23:38.729Z,100439.50
2023-05-06T06:26:07.109Z,100438.31
2023-05-06T06:28:35.447Z,100440.69
2023-05-06T06:31:03.874Z,100427.00
2023-05-06T06:33:32.317Z,100432.34
2023-05-06T06:36:02.161Z,100426.50
2023-05-06T06:38:30.493Z,100426.88
2023-05-06T06:40:58.803Z,100431.59
2023-05-06T06:43:27.282Z,100432.47
2023-05-06T06:45:56.460Z,100434.41
2023-05-06T06:48:24.958Z,100437.16
2023-05-06T06:50:53.320Z,100435.97
2023-05-06T06:53:23.291Z,100442.25
2023-05-06T06:55:51.815Z,100451.09
2023-05-06T06:58:20.200Z,100432.47
2023-05-06T07:00:48.591Z,100438.72
2023-05-06T07:03:19.713Z,100430.09
2023-05-06T07:05:48.220Z,100444.94
2023-05-06T07:08:17.342Z,100449.25
2023-05-06T07:10:47.244Z,100452.69
2023-05-06T07:13:16.013Z,100454.34
2023-05-06T07:15:44.971Z,100443.41
2023-05-06T07:18:13.482Z,100441.03
2023-05-06T07:20:41.921Z,100450.44
2023-05-06T07:23:10.258Z,100448.03
2023-05-06T07:25:38.587Z,100446.91
2023-05-06T07:28:08.589Z,100454.63
2023-05-06T07:30:39.585Z,100447.97
2023-05-06T07:33:08.010Z,100452.53
2023-05-06T07:35:36.473Z,100452.56
2023-05-06T07:38:04.944Z,100453.84
2023-05-06T07:40:33.532Z,100456.28
2023-05-06T07:43:01.880Z,100460.16
2023-05-06T07:45:31.877Z,100465.28
2023-05-06T07:48:00.343Z,100466.38
2023-05-06T07:50:28.677Z,100468.69
2023-05-06T07:52:57.004Z,100477.72
2023-05-06T07:55:25.429Z,100472.72
2023-05-06T07:57:53.904Z,100485.13
2023-05-06T08:00:22.455Z,100472.56
2023-05-06T08:02:52.286Z,100472.63
2023-05-06T08:05:20.795Z,100487.31
2023-05-06T08:07:50.277Z,100487.59
2023-05-06T08:10:18.832Z,100492.75
2023-05-06T08:12:47.470Z,100496.72
2023-05-06T08:15:15.895Z,100490.44
2023-05-06T08:17:44.446Z,100502.13
2023-05-06T08:20:15.245Z,100488.84
2023-05-06T08:22:43.594Z,100488.09
2023-05-06T08:25:12.237Z,100487.84
2023-05-06T08:27:40.992Z,100484.22
2023-05-06T08:30:10.496Z,100486.94
2023-05-06T08:32:39.448Z,100500.38
2023-05-06T08:35:08.860Z,100496.78
2023-05-06T08:37:38.996Z,100503.09
2023-05-06T08:40:16.921Z,100495.22
2023-05-06T08:42:47.824Z,100512.41
2023-05-06T08:45:16.382Z,100505.91
2023-05-06T08:47:45.169Z,100507.50
2023-05-06T08:50:13.626Z,100515.97
2023-05-06T08:52:43.643Z,100517.13
2023-05-06T08:55:12.881Z,100514.41
2023-05-06T08:57:43.948Z,100511.84
2023-05-06T09:00:13.263Z,100512.41
2023-05-06T09:02:43.262Z,100535.44
2023-05-06T09:05:12.865Z,100516.59
2023-05-06T09:07:42.723Z,100523.31
2023-05-06T09:10:14.533Z,100519.03
2023-05-06T09:12:43.141Z,100532.28
2023-05-06T09:15:13.014Z,100522.25
2023-05-06T09:17:41.534Z,100524.00
2023-05-06T09:20:13.543Z,100525.38
2023-05-06T09:22:43.522Z,100537.50
2023-05-06T09:25:12.496Z,100523.97
2023-05-06T09:27:41.601Z,100525.59
2023-05-06T09:30:12.891Z,100516.84
2023-05-06T09:32:41.943Z,100512.75
2023-05-06T09:35:11.965Z,100512.91
2023-05-06T09:37:42.849Z,100504.28
2023-05-06T09:40:11.697Z,100501.09
2023-05-06T09:42:40.210Z,100521.59
2023-05-06T09:45:10.755Z,100506.69
2023-05-06T09:47:39.507Z,100505.06
2023-05-06T09:50:11.377Z,100497.03
2023-05-06T09:52:39.803Z,100502.13
2023-05-06T09:55:12.619Z,100491.72
2023-05-06T09:57:42.302Z,100500.16
2023-05-06T10:00:12.167Z,100490.97
2023-05-06T10:02:42.242Z,100490.50
2023-05-06T10:05:12.524Z,100484.28
2023-05-06T10:07:42.410Z,100492.00
2023-05-06T10:10:13.690Z,100477.41
2023-05-06T10:12:42.219Z,100482.09
2023-05-06T10:15:11.565Z,100479.19
2023-05-06T10:17:43.053Z,100486.44
2023-05-06T10:20:14.725Z,100466.78
2023-05-06T10:22:54.598Z,100476.78
2023-05-06T10:25:31.838Z,100479.88
2023-05-06T10:28:01.506Z,100478.59
2023-05-06T10:30:34.111Z,100482.94
2023-05-06T10:33:06.477Z,100466.84
2023-05-06T10:35:46.100Z,100483.63
2023-05-06T10:38:19.032Z,100496.34
2023-05-06T10:40:50.044Z,100493.59
2023-05-06T10:43:26.324Z,100498.09
2023-05-06T10:46:04.815Z,100496.03
2023-05-06T10:48:33.856Z,100494.81
2023-05-06T10:51:24.723Z,100489.63
2023-05-06T10:54:04.763Z,100481.38
2023-05-06T10:56:35.736Z,100492.91
2023-05-06T10:59:08.315Z,100494.84
2023-05-06T11:01:37.495Z,100520.72
2023-05-06T11:04:10.897Z,100511.69
2023-05-06T11:06:41.896Z,100516.72
2023-05-06T11:09:19.010Z,100518.91
2023-05-06T11:12:01.985Z,100515.09
2023-05-06T11:14:31.225Z,100529.06
2023-05-06T11:17:01.735Z,100529.34
2023-05-06T11:19:31.584Z,100538.25
2023-05-06T11:22:01.232Z,100523.28
2023-05-06T11:24:30.723Z,100528.72
2023-05-06T11:27:01.839Z,100533.09
2023-05-06T11:29:30.147Z,100556.88
2023-05-06T11:31:58.665Z,100527.53
2023-05-06T11:34:29.243Z,100532.75
2023-05-06T11:37:02.319Z,100504.84
2023-05-06T11:39:36.688Z,100517.94
2023-05-06T11:42:09.785Z,100503.03
2023-05-06T11:44:39.885Z,100517.75
2023-05-06T11:47:09.522Z,100506.97
2023-05-06T11:49:39.355Z,100518.97
2023-05-06T11:52:09.203Z,100509.72
2023-05-06T11:54:39.650Z,100517.78
2023-05-06T11:57:10.019Z,100520.06
2023-05-06T11:59:39.613Z,100502.19
2023-05-06T12:02:09.704Z,100527.50
2023-05-06T12:04:42.400Z,100498.16
2023-05-06T12:07:12.394Z,100501.69
2023-05-06T12:09:43.715Z,100506.84
2023-05-06T12:12:16.634Z,100503.44
2023-05-06T12:14:46.240Z,100521.16
2023-05-06T12:17:15.587Z,100512.19
2023-05-06T12:19:44.145Z,100537.91
2023-05-06T12:22:19.735Z,100517.03
2023-05-06T12:24:48.415Z,100523.38
2023-05-06T12:27:33.090Z,100526.59
2023-05-06T12:30:06.999Z,100518.97
2023-05-06T12:32:35.396Z,100524.03
2023-05-06T12:35:07.740Z,100512.72
2023-05-06T12:37:36.622Z,100504.03
2023-05-06T12:40:05.210Z,100515.38
2023-05-06T12:42:35.006Z,100505.97
2023-05-06T12:45:15.966Z,100508.31
2023-05-06T12:47:54.896Z,100495.09
2023-05-06T12:50:34.126Z,100498.38
2023-05-06T12:53:02.860Z,100499.16
2023-05-06T12:55:32.329Z,100498.03
2023-05-06T12:58:02.764Z,100491.63
2023-05-06T13:00:31.473Z,100502.50
2023-05-06T13:02:59.840Z,100498.50
2023-05-06T13:05:28.532Z,100494.53
2023-05-06T13:07:56.878Z,100491.81
2023-05-06T13:10:25.774Z,100493.13
2023-05-06T13:12:54.205Z,100495.06
2023-05-06T13:15:24.257Z,100493.84
2023-05-06T13:17:53.053Z,100487.81
2023-05-06T13:20:21.478Z,100520.72
2023-05-06T13:22:54.789Z,100508.09
2023-05-06T13:25:23.776Z,100499.66
2023-05-06T13:27:52.162Z,100503.03
2023-05-06T13:30:20.626Z,100490.75
2023-05-06T13:32:50.546Z,100503.13
2023-05-06T13:35:19.028Z,100507.59
2023-05-06T13:37:47.697Z,100503.09
2023-05-06T13:40:16.038Z,100534.41
2023-05-06T13:42:44.360Z,100499.38
2023-05-06T13:45:12.833Z,100502.69
2023-05-06T13:47:43.197Z,100497.00
2023-05-06T13:50:13.360Z,100506.88
2023-05-06T13:52:41.723Z,100506.88
2023-05-06T13:55:10.720Z,100494.91
2023-05-06T13:57:39.255Z,100503.81
2023-05-06T14:00:11.031Z,100502.75
2023-05-06T14:02:39.514Z,100498.53
2023-05-06T14:05:09.095Z,100497.66
2023-05-06T14:07:40.534Z,100499.31
2023-05-06T14:10:10.250Z,100497.16
2023-05-06T14:12:38.634Z,100506.59
2023-05-06T14:15:08.339Z,100502.81
2023-05-06T14:17:37.348Z,100514.50
2023-05-06T14:20:06.651Z,100504.66
2023-05-06T14:22:34.999Z,100525.59
2023-05-06T14:25:05.375Z,100527.06
2023-05-06T14:27:33.751Z,100514.47
2023-05-06T14:30:08.152Z,100522.44
2023-05-06T14:32:37.932Z,100535.69
2023-05-06T14:35:07.106Z,100525.13
2023-05-06T14:37:35.377Z,100535.41
2023-05-06T14:40:05.942Z,100522.34
2023-05-06T14:42:35.906Z,100535.44
2023-05-06T14:45:04.381Z,100528.59
2023-05-06T14:47:32.818Z,100530.38
2023-05-06T14:50:01.789Z,100543.31
2023-05-06T14:52:30.218Z,100538.50
2023-05-06T14:54:58.572Z,100532.03
2023-05-06T14:57:28.312Z,100544.44
2023-05-06T14:59:56.850Z,100542.06
2023-05-06T15:02:25.283Z,100552.03
2023-05-06T15:04:53.670Z,100532.38
2023-05-06T15:07:21.949Z,100541.28
2023-05-06T15:09:50.295Z,100538.44
2023-05-06T15:12:18.535Z,100548.78
2023-05-06T15:14:48.460Z,100538.03
2023-05-06T15:17:16.784Z,100553.78
2023-05-06T15:19:45.109Z,100540.69
2023-05-06T15:22:13.435Z,100530.53
2023-05-06T15:24:41.899Z,100550.13
2023-05-06T15:27:10.234Z,100546.66
2023-05-06T15:29:39.721Z,100543.19
2023-05-06T15:32:09.538Z,100535.84
2023-05-06T15:34:38.025Z,100543.00
2023-05-06T15:37:06.465Z,100540.88
2023-05-06T15:39:38.161Z,100534.63
2023-05-06T15:42:06.802Z,100545.88
2023-05-06T15:44:37.570Z,100539.53
2023-05-06T15:47:06.392Z,100546.97
2023-05-06T15:49:51.396Z,100548.09
2023-05-06T15:52:22.734Z,100549.56
2023-05-06T15:54:51.065Z,100557.94
2023-05-06T15:57:19.512Z,100578.41
2023-05-06T15:59:47.947Z,100558.56
2023-05-06T16:04:49.040Z,100570.06
2023-05-06T16:07:17.817Z,100572.41
2023-05-06T16:09:46.174Z,100591.00
2023-05-06T16:12:15.365Z,100576.56
2023-05-06T16:14:43.859Z,100569.22
2023-05-06T16:17:12.229Z,100573.75
2023-05-06T16:19:40.603Z,100572.38
2023-05-06T16:22:10.463Z,100581.72
2023-05-06T16:24:38.848Z,100585.63
2023-05-06T16:27:07.176Z,100586.63
2023-05-06T16:29:35.546Z,100587.56
2023-05-06T16:32:03.968Z,100571.56
2023-05-06T16:34:32.488Z,100569.53
2023-05-06T16:37:01.802Z,100587.31
2023-05-06T16:39:31.557Z,100592.56
2023-05-06T16:41:59.856Z,100602.59
2023-05-06T16:44:28.497Z,100583.19
2023-05-06T16:46:56.843Z,100592.94
2023-05-06T16:49:27.970Z,100589.47
2023-05-06T16:51:58.022Z,100601.91
2023-05-06T16:54:26.624Z,100604.81
2023-05-06T16:56:56.583Z,100594.53
2023-05-06T16:59:24.978Z,100612.13
2023-05-06T17:01:53.370Z,100608.22
2023-05-06T17:04:21.680Z,100611.69
2023-05-06T17:06:50.203Z,100601.53
2023-05-06T17:09:18.582Z,100605.00
2023-05-06T17:11:46.880Z,100615.38
2023-05-06T17:14:16.760Z,100625.22
2023-05-06T17:16:45.263Z,100613.22
2023-05-06T17:19:13.740Z,100620.69
2023-05-06T17:21:42.214Z,100625.81
2023-05-06T17:24:10.799Z,100626.25
2023-05-06T17:26:40.450Z,100631.66
2023-05-06T17:29:08.948Z,100627.41
2023-05-06T17:31:38.777Z,100629.94
2023-05-06T17:34:07.583Z,100649.81
2023-05-06T17:36:35.941Z,100642.31
2023-05-06T17:39:04.752Z,100651.69
2023-05-06T17:41:33.780Z,100646.13
2023-05-06T17:44:02.263Z,100647.09
2023-05-06T17:46:31.362Z,100647.44
2023-05-06T17:49:01.296Z,100668.88
2023-05-06T17:51:29.768Z,100651.31
2023-05-06T17:53:58.994Z,100653.84
2023-05-06T17:56:27.866Z,100656.75
2023-05-06T17:58:56.607Z,100654.91
2023-05-06T18:01:24.954Z,100666.50
2023-05-06T18:03:53.449Z,100656.06
2023-05-06T18:06:23.353Z,100656.06
2023-05-06T18:08:53.122Z,100667.50
2023-05-06T18:11:21.680Z,100659.41
2023-05-06T18:13:50.241Z,100673.34
2023-05-06T18:16:18.634Z,100653.34
2023-05-06T18:18:47.115Z,100665.53
2023-05-06T18:21:15.608Z,100667.78
2023-05-06T18:23:45.474Z,100671.72
2023-05-06T18:26:18.754Z,100666.66
2023-05-06T18:28:53.026Z,100677.75
2023-05-06T18:31:21.778Z,100678.25
2023-05-06T18:33:50.232Z,100671.91
2023-05-06T18:36:18.638Z,100688.88
2023-05-06T18:38:48.592Z,100673.31
2023-05-06T18:41:16.880Z,100677.44
2023-05-06T18:43:45.216Z,100676.31
2023-05-06T18:46:13.576Z,100678.81
2023-05-06T18:48:42.089Z,100680.22
2023-05-06T18:51:11.944Z,100670.88
2023-05-06T18:53:40.376Z,100670.72
2023-05-06T18:56:10.975Z,100668.84
2023-05-06T18:58:40.192Z,100669.75
2023-05-06T19:01:09.735Z,100664.03
2023-05-06T19:03:39.394Z,100684.69
2023-05-06T19:06:09.416Z,100683.56
2023-05-06T19:08:38.708Z,100668.84
2023-05-06T19:11:07.154Z,100672.44
2023-05-06T19:13:36.920Z,100669.75
2023-05-06T19:16:05.437Z,100666.81
2023-05-06T19:18:33.768Z,100672.31
2023-05-06T19:21:02.699Z,100663.78
2023-05-06T19:23:31.232Z,100659.94
2023-05-06T19:25:59.631Z,100666.94
2023-05-06T19:28:28.041Z,100675.22
2023-05-06T19:30:57.828Z,100674.09
2023-05-06T19:33:26.357Z,100666.81
2023-05-06T19:35:54.755Z,100672.97
2023-05-06T19:38:23.157Z,100661.06
2023-05-06T19:40:51.544Z,100676.78
2023-05-06T19:43:19.965Z,100667.13
2023-05-06T19:45:48.359Z,100669.94
2023-05-06T19:48:19.722Z,100667.44
2023-05-06T19:50:48.171Z,100659.19
2023-05-06T19:53:17.849Z,100663.00
2023-05-06T19:55:46.420Z,100662.41
2023-05-06T19:58:17.345Z,100663.06
2023-05-06T20:00:46.468Z,100657.88
2023-05-06T20:03:15.319Z,100658.91
2023-05-06T20:05:45.189Z,100675.72
2023-05-06T20:08:13.603Z,100666.50
2023-05-06T20:10:41.957Z,100665.59
2023-05-06T20:13:11.958Z,100661.63
2023-05-06T20:15:40.424Z,100661.63
2023-05-06T20:18:08.898Z,100669.19
2023-05-06T20:20:37.990Z,100661.75
2023-05-06T20:23:07.929Z,100663.50
2023-05-06T20:25:37.746Z,100665.41
2023-05-06T20:28:06.999Z,100658.63
2023-05-06T20:30:35.494Z,100652.91
2023-05-06T20:33:04.086Z,100653.22
2023-05-06T20:35:38.293Z,100659.56
2023-05-06T20:38:09.381Z,100657.97
2023-05-06T20:40:37.832Z,100653.53
2023-05-06T20:43:06.264Z,100647.53
2023-05-06T20:45:34.740Z,100651.50
2023-05-06T20:48:03.084Z,100647.22
2023-05-06T20:50:31.466Z,100656.28
2023-05-06T20:52:59.888Z,100658.00
2023-05-06T20:55:29.711Z,100651.84
2023-05-06T20:57:58.154Z,100649.47
2023-05-06T21:00:26.649Z,100650.75
2023-05-06T21:02:55.108Z,100650.13
2023-05-06T21:05:23.687Z,100653.00
2023-05-06T21:07:52.184Z,100648.88
2023-05-06T21:10:20.782Z,100647.91
2023-05-06T21:12:51.179Z,100645.41
2023-05-06T21:15:20.058Z,100646.97
2023-05-06T21:17:48.526Z,100643.94
2023-05-06T21:20:17.287Z,100638.41
2023-05-06T21:22:45.655Z,100639.38
2023-05-06T21:25:14.398Z,100647.91
2023-05-06T21:27:43.189Z,100646.50
2023-05-06T21:30:13.881Z,100633.81
2023-05-06T21:32:42.308Z,100640.28
2023-05-06T21:35:11.402Z,100632.25
2023-05-06T21:37:40.034Z,100628.59
2023-05-06T21:40:09.569Z,100643.03
2023-05-06T21:42:37.943Z,100638.09
2023-05-06T21:45:07.473Z,100639.38
2023-05-06T21:47:37.435Z,100642.53
2023-05-06T21:50:06.773Z,100643.81
2023-05-06T21:52:35.289Z,100642.25
2023-05-06T21:55:03.802Z,100640.78
2023-05-06T21:57:32.811Z,100656.94
2023-05-06T22:00:01.725Z,100658.53
2023-05-06T22:02:30.120Z,100655.84
2023-05-06T22:05:00.166Z,100655.22
2023-05-06T22:07:28.810Z,100647.63
2023-05-06T22:09:57.257Z,100656.94
2023-05-06T22:12:25.660Z,100649.38
2023-05-06T22:14:53.981Z,100643.16
2023-05-06T22:17:22.355Z,100643.47
2023-05-06T22:19:51.636Z,100641.59
2023-05-06T22:22:21.900Z,100643.97
2023-05-06T22:24:50.381Z,100646.03
2023-05-06T22:27:18.710Z,100653.47
2023-05-06T22:29:47.276Z,100644.78
2023-05-06T22:32:15.576Z,100648.56
2023-05-06T22:34:43.905Z,100653.00
2023-05-06T22:37:12.250Z,100645.41
2023-05-06T22:39:42.129Z,100641.91
2023-05-06T22:42:10.477Z,100636.53
2023-05-06T22:44:38.757Z,100642.88
2023-05-06T22:47:07.292Z,100635.09
2023-05-06T22:49:36.477Z,100635.09
2023-05-06T22:52:05.170Z,100626.09
2023-05-06T22:54:33.616Z,100627.34
2023-05-06T22:57:03.457Z,100626.69
2023-05-06T22:59:31.918Z,100628.94
2023-05-06T23:02:00.245Z,100628.94
2023-05-06T23:04:28.527Z,100620.06
2023-05-06T23:06:57.507Z,100609.63
2023-05-06T23:09:25.869Z,100613.41
2023-05-06T23:11:54.188Z,100616.28
2023-05-06T23:14:24.092Z,100611.84
2023-05-06T23:16:52.668Z,100614.22
2023-05-06T23:19:22.167Z,100601.72
2023-05-06T23:21:50.635Z,100612.00
2023-05-06T23:24:19.107Z,100607.25
2023-05-06T23:26:47.470Z,100610.25
2023-05-06T23:29:15.792Z,100607.72
2023-05-06T23:31:45.694Z,100595.22
2023-05-06T23:34:14.533Z,100593.00
2023-05-06T23:36:42.871Z,100592.69
2023-05-06T23:39:12.398Z,100595.38
2023-05-06T23:41:40.769Z,100597.56
2023-05-06T23:44:09.090Z,100600.75
2023-05-06T23:46:37.467Z,100603.75
2023-05-06T23:49:07.276Z,100594.41
2023-05-06T23:51:35.675Z,100607.56
2023-05-06T23:54:04.111Z,100595.19
2023-05-06T23:56:32.539Z,100592.38
2023-05-06T23:59:00.887Z,100583.84
